sensor_id;sensor_type;location;lat;lon;timestamp;P1;durP1;ratioP1;P2;durP2;ratioP2
56171;SDS011;42052;41.634;-0.946;2023-04-24T16:59:50;1.67;;;0.77;;
56171;SDS011;42052;41.634;-0.946;2023-04-24T17:02:37;1.52;;;0.75;;
56171;SDS011;42052;41.634;-0.946;2023-04-24T17:05:25;1.02;;;0.60;;
56171;SDS011;42052;41.634;-0.946;2023-04-24T17:08:12;1.27;;;0.70;;
56171;SDS011;42052;41.634;-0.946;2023-04-24T17:10:58;0.60;;;0.55;;
56171;SDS011;42052;41.634;-0.946;2023-04-24T17:13:44;1.13;;;0.65;;
56171;SDS011;42052;41.634;-0.946;2023-04-24T17:16:31;0.98;;;0.60;;
56171;SDS011;42052;41.634;-0.946;2023-04-24T17:19:18;1.10;;;0.70;;
56171;SDS011;42052;41.634;-0.946;2023-04-24T17:22:04;0.95;;;0.57;;
56171;SDS011;42052;41.634;-0.946;2023-04-24T17:24:50;0.98;;;0.60;;
56171;SDS011;42052;41.634;-0.946;2023-04-24T17:27:37;1.48;;;0.70;;
56171;SDS011;42052;41.634;-0.946;2023-04-24T17:30:23;0.93;;;0.70;;
56171;SDS011;42052;41.634;-0.946;2023-04-24T17:33:09;1.23;;;0.50;;
56171;SDS011;42052;41.634;-0.946;2023-04-24T17:35:55;0.60;;;0.52;;
56171;SDS011;42052;41.634;-0.946;2023-04-24T17:38:46;0.98;;;0.60;;
56171;SDS011;42052;41.634;-0.946;2023-04-24T17:41:34;1.45;;;0.63;;
56171;SDS011;42052;41.634;-0.946;2023-04-24T17:44:21;0.68;;;0.40;;
56171;SDS011;42052;41.634;-0.946;2023-04-24T17:47:07;0.88;;;0.55;;
56171;SDS011;42052;41.634;-0.946;2023-04-24T17:49:54;0.70;;;0.50;;
56171;SDS011;42052;41.634;-0.946;2023-04-24T17:52:40;1.52;;;0.60;;
56171;SDS011;42052;41.634;-0.946;2023-04-24T17:55:26;0.65;;;0.50;;
56171;SDS011;42052;41.634;-0.946;2023-04-24T17:58:12;0.77;;;0.40;;
56171;SDS011;42052;41.634;-0.946;2023-04-24T18:00:58;0.90;;;0.50;;
56171;SDS011;42052;41.634;-0.946;2023-04-24T18:03:45;1.63;;;0.60;;
56171;SDS011;42052;41.634;-0.946;2023-04-24T18:06:32;1.25;;;0.50;;
56171;SDS011;42052;41.634;-0.946;2023-04-24T18:09:18;1.00;;;0.57;;
56171;SDS011;42052;41.634;-0.946;2023-04-24T18:12:05;1.08;;;0.50;;
56171;SDS011;42052;41.634;-0.946;2023-04-24T18:14:51;0.95;;;0.60;;
56171;SDS011;42052;41.634;-0.946;2023-04-24T18:17:38;1.58;;;0.57;;
56171;SDS011;42052;41.634;-0.946;2023-04-24T18:20:24;1.38;;;0.50;;
56171;SDS011;42052;41.634;-0.946;2023-04-24T18:23:10;0.90;;;0.50;;
56171;SDS011;42052;41.634;-0.946;2023-04-24T18:25:56;0.90;;;0.70;;
56171;SDS011;42052;41.634;-0.946;2023-04-24T18:28:43;1.00;;;0.60;;
56171;SDS011;42052;41.634;-0.946;2023-04-24T18:31:29;1.13;;;0.60;;
56171;SDS011;42052;41.634;-0.946;2023-04-24T18:34:16;0.70;;;0.50;;
56171;SDS011;42052;41.634;-0.946;2023-04-24T18:37:03;0.85;;;0.50;;
56171;SDS011;42052;41.634;-0.946;2023-04-24T18:39:49;1.10;;;0.60;;
56171;SDS011;42052;41.634;-0.946;2023-04-24T18:42:37;0.50;;;0.50;;
56171;SDS011;42052;41.634;-0.946;2023-04-24T18:45:24;0.85;;;0.50;;
56171;SDS011;42052;41.634;-0.946;2023-04-24T18:48:11;1.00;;;0.60;;
56171;SDS011;42052;41.634;-0.946;2023-04-24T18:50:57;0.80;;;0.60;;
56171;SDS011;42052;41.634;-0.946;2023-04-24T18:53:43;1.20;;;0.52;;
56171;SDS011;42052;41.634;-0.946;2023-04-24T18:56:29;0.50;;;0.40;;
56171;SDS011;42052;41.634;-0.946;2023-04-24T18:59:16;1.30;;;0.55;;
56171;SDS011;42052;41.634;-0.946;2023-04-24T19:02:02;3.10;;;0.60;;
56171;SDS011;42052;41.634;-0.946;2023-04-24T19:04:48;2.13;;;0.43;;
56171;SDS011;42052;41.634;-0.946;2023-04-24T19:07:35;1.25;;;0.60;;
56171;SDS011;42052;41.634;-0.946;2023-04-24T19:10:21;1.17;;;0.65;;
56171;SDS011;42052;41.634;-0.946;2023-04-24T19:13:07;1.30;;;0.70;;
56171;SDS011;42052;41.634;-0.946;2023-04-24T19:15:53;0.60;;;0.60;;
56171;SDS011;42052;41.634;-0.946;2023-04-24T19:18:39;1.70;;;0.90;;
56171;SDS011;42052;41.634;-0.946;2023-04-24T19:21:26;2.15;;;1.10;;
56171;SDS011;42052;41.634;-0.946;2023-04-24T19:24:12;1.40;;;1.20;;
56171;SDS011;42052;41.634;-0.946;2023-04-24T19:26:59;2.00;;;1.35;;
56171;SDS011;42052;41.634;-0.946;2023-04-24T19:29:46;1.85;;;1.40;;
56171;SDS011;42052;41.634;-0.946;2023-04-24T19:32:32;3.33;;;1.80;;
56171;SDS011;42052;41.634;-0.946;2023-04-24T19:35:18;3.53;;;2.25;;
56171;SDS011;42052;41.634;-0.946;2023-04-24T19:38:05;2.97;;;2.15;;
56171;SDS011;42052;41.634;-0.946;2023-04-24T19:40:51;2.72;;;2.28;;
56171;SDS011;42052;41.634;-0.946;2023-04-24T19:43:38;4.32;;;2.50;;
56171;SDS011;42052;41.634;-0.946;2023-04-24T19:46:24;3.40;;;2.50;;
56171;SDS011;42052;41.634;-0.946;2023-04-24T19:49:11;4.32;;;3.17;;
56171;SDS011;42052;41.634;-0.946;2023-04-24T19:51:59;3.90;;;3.10;;
56171;SDS011;42052;41.634;-0.946;2023-04-24T19:54:45;4.55;;;3.20;;
56171;SDS011;42052;41.634;-0.946;2023-04-24T19:57:32;3.88;;;2.90;;
56171;SDS011;42052;41.634;-0.946;2023-04-24T20:00:18;6.13;;;2.80;;
56171;SDS011;42052;41.634;-0.946;2023-04-24T20:03:04;4.05;;;2.75;;
56171;SDS011;42052;41.634;-0.946;2023-04-24T20:05:50;3.60;;;2.50;;
56171;SDS011;42052;41.634;-0.946;2023-04-24T20:08:36;5.68;;;2.38;;
56171;SDS011;42052;41.634;-0.946;2023-04-24T20:11:23;2.70;;;2.20;;
56171;SDS011;42052;41.634;-0.946;2023-04-24T20:14:09;3.92;;;2.30;;
56171;SDS011;42052;41.634;-0.946;2023-04-24T20:16:56;3.95;;;2.30;;
56171;SDS011;42052;41.634;-0.946;2023-04-24T20:19:42;3.72;;;2.10;;
56171;SDS011;42052;41.634;-0.946;2023-04-24T20:22:29;2.60;;;1.70;;
56171;SDS011;42052;41.634;-0.946;2023-04-24T20:25:19;2.60;;;1.60;;
56171;SDS011;42052;41.634;-0.946;2023-04-24T20:28:05;1.92;;;1.70;;
56171;SDS011;42052;41.634;-0.946;2023-04-24T20:30:52;2.17;;;1.55;;
56171;SDS011;42052;41.634;-0.946;2023-04-24T20:33:38;1.83;;;1.33;;
56171;SDS011;42052;41.634;-0.946;2023-04-24T20:36:25;2.20;;;1.30;;
56171;SDS011;42052;41.634;-0.946;2023-04-24T20:39:12;1.77;;;1.50;;
56171;SDS011;42052;41.634;-0.946;2023-04-24T20:41:58;3.58;;;1.20;;
56171;SDS011;42052;41.634;-0.946;2023-04-24T20:44:44;3.45;;;1.17;;
56171;SDS011;42052;41.634;-0.946;2023-04-24T20:47:31;1.38;;;1.17;;
56171;SDS011;42052;41.634;-0.946;2023-04-24T20:50:17;1.52;;;1.20;;
56171;SDS011;42052;41.634;-0.946;2023-04-24T20:53:04;1.92;;;1.25;;
56171;SDS011;42052;41.634;-0.946;2023-04-24T20:55:50;2.03;;;1.30;;
56171;SDS011;42052;41.634;-0.946;2023-04-24T20:58:36;1.27;;;1.08;;
56171;SDS011;42052;41.634;-0.946;2023-04-24T21:01:23;1.95;;;0.90;;
56171;SDS011;42052;41.634;-0.946;2023-04-24T21:04:09;3.72;;;1.10;;
56171;SDS011;42052;41.634;-0.946;2023-04-24T21:06:55;2.08;;;1.10;;
56171;SDS011;42052;41.634;-0.946;2023-04-24T21:09:42;2.88;;;0.90;;
56171;SDS011;42052;41.634;-0.946;2023-04-24T21:12:28;1.60;;;1.17;;
56171;SDS011;42052;41.634;-0.946;2023-04-24T21:15:14;5.07;;;1.27;;
56171;SDS011;42052;41.634;-0.946;2023-04-24T21:18:01;5.38;;;1.90;;
56171;SDS011;42052;41.634;-0.946;2023-04-24T21:20:47;49.88;;;10.73;;
56171;SDS011;42052;41.634;-0.946;2023-04-24T21:23:34;93.72;;;21.10;;
56171;SDS011;42052;41.634;-0.946;2023-04-24T21:26:20;158.93;;;34.22;;
56171;SDS011;42052;41.634;-0.946;2023-04-24T21:29:07;110.00;;;22.58;;
56171;SDS011;42052;41.634;-0.946;2023-04-24T21:31:53;92.47;;;22.05;;
56171;SDS011;42052;41.634;-0.946;2023-04-24T21:34:39;78.63;;;18.52;;
56171;SDS011;42052;41.634;-0.946;2023-04-24T21:37:25;69.93;;;17.45;;
56171;SDS011;42052;41.634;-0.946;2023-04-24T21:40:12;63.42;;;16.23;;
56171;SDS011;42052;41.634;-0.946;2023-04-24T21:43:00;56.22;;;14.77;;
56171;SDS011;42052;41.634;-0.946;2023-04-24T21:45:46;55.85;;;13.80;;
56171;SDS011;42052;41.634;-0.946;2023-04-24T21:48:32;49.95;;;13.00;;
56171;SDS011;42052;41.634;-0.946;2023-04-24T21:51:19;42.30;;;11.95;;
56171;SDS011;42052;41.634;-0.946;2023-04-24T21:54:05;42.08;;;10.90;;
56171;SDS011;42052;41.634;-0.946;2023-04-24T21:56:51;36.63;;;9.50;;
56171;SDS011;42052;41.634;-0.946;2023-04-24T21:59:37;28.88;;;9.40;;
56171;SDS011;42052;41.634;-0.946;2023-04-24T22:02:24;27.23;;;9.13;;
56171;SDS011;42052;41.634;-0.946;2023-04-24T22:05:10;84.53;;;21.60;;
56171;SDS011;42052;41.634;-0.946;2023-04-24T22:08:00;61.60;;;18.00;;
56171;SDS011;42052;41.634;-0.946;2023-04-24T22:10:46;81.50;;;21.83;;
56171;SDS011;42052;41.634;-0.946;2023-04-24T22:13:32;52.42;;;13.80;;
56171;SDS011;42052;41.634;-0.946;2023-04-24T22:16:20;34.00;;;9.38;;
56171;SDS011;42052;41.634;-0.946;2023-04-24T22:19:08;25.00;;;7.60;;
56171;SDS011;42052;41.634;-0.946;2023-04-24T22:21:55;35.20;;;11.32;;
56171;SDS011;42052;41.634;-0.946;2023-04-24T22:24:41;40.25;;;11.73;;
56171;SDS011;42052;41.634;-0.946;2023-04-24T22:27:27;38.67;;;11.07;;
56171;SDS011;42052;41.634;-0.946;2023-04-24T22:30:13;33.67;;;10.82;;
56171;SDS011;42052;41.634;-0.946;2023-04-24T22:33:00;36.17;;;10.77;;
56171;SDS011;42052;41.634;-0.946;2023-04-24T22:35:46;37.47;;;11.02;;
56171;SDS011;42052;41.634;-0.946;2023-04-24T22:38:33;37.20;;;10.05;;
56171;SDS011;42052;41.634;-0.946;2023-04-24T22:41:20;30.85;;;9.73;;
56171;SDS011;42052;41.634;-0.946;2023-04-24T22:44:06;29.45;;;9.20;;
56171;SDS011;42052;41.634;-0.946;2023-04-24T22:46:52;23.67;;;8.18;;
56171;SDS011;42052;41.634;-0.946;2023-04-24T22:49:39;25.20;;;8.40;;
56171;SDS011;42052;41.634;-0.946;2023-04-24T22:52:27;26.40;;;8.10;;
56171;SDS011;42052;41.634;-0.946;2023-04-24T22:55:14;23.15;;;7.85;;
56171;SDS011;42052;41.634;-0.946;2023-04-24T22:58:01;24.67;;;7.70;;
56171;SDS011;42052;41.634;-0.946;2023-04-24T23:00:47;24.10;;;6.63;;
56171;SDS011;42052;41.634;-0.946;2023-04-24T23:03:33;19.23;;;6.43;;
56171;SDS011;42052;41.634;-0.946;2023-04-24T23:06:20;15.43;;;5.40;;
56171;SDS011;42052;41.634;-0.946;2023-04-24T23:09:06;13.23;;;5.35;;
56171;SDS011;42052;41.634;-0.946;2023-04-24T23:11:53;17.35;;;5.38;;
56171;SDS011;42052;41.634;-0.946;2023-04-24T23:14:39;15.65;;;5.22;;
56171;SDS011;42052;41.634;-0.946;2023-04-24T23:17:26;13.55;;;4.95;;
56171;SDS011;42052;41.634;-0.946;2023-04-24T23:20:12;11.20;;;4.28;;
56171;SDS011;42052;41.634;-0.946;2023-04-24T23:23:00;9.02;;;3.78;;
56171;SDS011;42052;41.634;-0.946;2023-04-24T23:25:46;9.50;;;3.30;;
56171;SDS011;42052;41.634;-0.946;2023-04-24T23:28:33;6.75;;;2.95;;
56171;SDS011;42052;41.634;-0.946;2023-04-24T23:31:20;6.68;;;2.90;;
56171;SDS011;42052;41.634;-0.946;2023-04-24T23:34:06;5.00;;;2.45;;
56171;SDS011;42052;41.634;-0.946;2023-04-24T23:36:53;6.53;;;2.55;;
56171;SDS011;42052;41.634;-0.946;2023-04-24T23:39:39;4.40;;;2.25;;
56171;SDS011;42052;41.634;-0.946;2023-04-24T23:42:26;5.85;;;2.30;;
56171;SDS011;42052;41.634;-0.946;2023-04-24T23:45:13;6.15;;;2.22;;
56171;SDS011;42052;41.634;-0.946;2023-04-24T23:48:00;6.70;;;2.40;;
56171;SDS011;42052;41.634;-0.946;2023-04-24T23:50:46;4.10;;;1.92;;
56171;SDS011;42052;41.634;-0.946;2023-04-24T23:53:32;5.97;;;1.90;;
56171;SDS011;42052;41.634;-0.946;2023-04-24T23:56:19;4.05;;;1.80;;
56171;SDS011;42052;41.634;-0.946;2023-04-24T23:59:08;5.80;;;1.95;;
